createdAt,value
2018-08-20T00:01:46.652Z,1.50
2018-08-20T00:04:14.620Z,1.73
2018-08-20T00:06:49.246Z,1.73
2018-08-20T00:09:16.702Z,1.80
2018-08-20T00:11:44.126Z,1.83
2018-08-20T00:14:11.546Z,1.83
2018-08-20T00:16:39.088Z,1.47
2018-08-20T00:19:06.571Z,1.70
2018-08-20T00:21:34.079Z,1.73
2018-08-20T00:24:01.461Z,1.77
2018-08-20T00:26:29.077Z,1.57
2018-08-20T00:28:56.487Z,1.87
2018-08-20T00:31:23.918Z,1.70
2018-08-20T00:33:51.294Z,1.80
2018-08-20T00:36:18.724Z,1.70
2018-08-20T00:38:46.118Z,1.70
2018-08-20T00:41:13.588Z,1.73
2018-08-20T00:43:41.160Z,1.80
2018-08-20T00:46:08.555Z,1.50
2018-08-20T00:48:35.938Z,1.43
2018-08-20T00:51:03.402Z,1.50
2018-08-20T00:53:30.784Z,1.67
2018-08-20T00:55:58.182Z,1.67
2018-08-20T00:58:25.795Z,1.93
2018-08-20T01:00:53.227Z,1.90
2018-08-20T01:03:20.667Z,1.87
2018-08-20T01:05:48.091Z,1.50
2018-08-20T01:08:15.502Z,1.80
2018-08-20T01:10:43.064Z,2.10
2018-08-20T01:13:10.494Z,1.90
2018-08-20T01:15:37.899Z,1.90
2018-08-20T01:18:05.657Z,1.90
2018-08-20T01:20:33.802Z,1.70
2018-08-20T01:23:01.480Z,2.00
2018-08-20T01:25:29.026Z,2.20
2018-08-20T01:27:57.033Z,1.70
2018-08-20T01:30:24.554Z,1.87
2018-08-20T01:32:55.998Z,1.90
2018-08-20T01:35:25.584Z,1.40
2018-08-20T01:37:53.154Z,1.70
2018-08-20T01:40:20.577Z,1.80
2018-08-20T01:42:48.007Z,2.10
2018-08-20T01:45:15.443Z,2.17
2018-08-20T01:47:42.850Z,2.17
2018-08-20T01:50:10.251Z,1.93
2018-08-20T01:52:37.808Z,2.27
2018-08-20T01:55:05.555Z,2.43
2018-08-20T01:57:33.034Z,2.10
2018-08-20T02:00:00.920Z,2.50
2018-08-20T02:02:29.066Z,2.80
2018-08-20T02:04:56.660Z,2.40
2018-08-20T02:07:24.116Z,2.37
2018-08-20T02:09:51.887Z,1.93
2018-08-20T02:12:19.319Z,1.80
2018-08-20T02:14:46.766Z,1.90
2018-08-20T02:17:14.536Z,1.90
2018-08-20T02:19:41.953Z,2.13
2018-08-20T02:22:09.466Z,2.00
2018-08-20T02:24:36.898Z,2.00
2018-08-20T02:27:04.379Z,2.13
2018-08-20T02:29:31.847Z,2.10
2018-08-20T02:31:59.575Z,2.17
2018-08-20T02:34:26.977Z,2.17
2018-08-20T02:36:54.387Z,1.90
2018-08-20T02:39:22.043Z,2.43
2018-08-20T02:41:49.723Z,2.23
2018-08-20T02:44:17.255Z,1.90
2018-08-20T02:46:46.947Z,2.27
2018-08-20T02:49:15.843Z,1.97
2018-08-20T02:51:43.242Z,2.10
2018-08-20T02:54:11.617Z,2.07
2018-08-20T02:56:39.257Z,1.90
2018-08-20T02:59:06.695Z,1.93
2018-08-20T03:01:34.279Z,2.00
2018-08-20T03:04:01.703Z,2.23
2018-08-20T03:06:29.094Z,1.97
2018-08-20T03:08:56.675Z,2.10
2018-08-20T03:11:24.116Z,2.10
2018-08-20T03:13:51.492Z,1.93
2018-08-20T03:16:18.896Z,2.07
2018-08-20T03:18:46.514Z,1.87
2018-08-20T03:21:13.900Z,2.20
2018-08-20T03:23:41.319Z,2.13
2018-08-20T03:26:08.900Z,2.10
2018-08-20T03:28:36.355Z,2.30
2018-08-20T03:31:03.763Z,2.00
2018-08-20T03:33:31.177Z,1.90
2018-08-20T03:35:58.701Z,2.50
2018-08-20T03:38:26.147Z,1.90
2018-08-20T03:40:53.599Z,2.20
2018-08-20T03:43:21.057Z,2.03
2018-08-20T03:45:48.609Z,2.40
2018-08-20T03:48:16.031Z,2.03
2018-08-20T03:50:43.413Z,2.20
2018-08-20T03:53:10.843Z,2.00
2018-08-20T03:55:38.259Z,2.13
2018-08-20T03:58:05.802Z,2.20
2018-08-20T04:00:33.842Z,2.13
2018-08-20T04:03:01.271Z,2.10
2018-08-20T04:05:28.660Z,2.20
2018-08-20T04:07:56.241Z,2.20
2018-08-20T04:10:23.756Z,2.43
2018-08-20T04:12:51.237Z,2.10
2018-08-20T04:15:18.692Z,2.30
2018-08-20T04:17:46.579Z,2.23
2018-08-20T04:20:13.963Z,1.97
2018-08-20T04:22:41.604Z,2.50
2018-08-20T04:25:09.022Z,2.17
2018-08-20T04:27:36.486Z,2.07
2018-08-20T04:30:04.554Z,2.23
2018-08-20T04:32:32.077Z,2.00
2018-08-20T04:34:59.583Z,2.27
2018-08-20T04:37:26.964Z,2.43
2018-08-20T04:39:54.439Z,2.20
2018-08-20T04:42:21.819Z,2.40
2018-08-20T04:44:49.403Z,2.27
2018-08-20T04:47:16.944Z,2.17
2018-08-20T04:49:44.628Z,1.93
2018-08-20T04:52:12.319Z,2.13
2018-08-20T04:54:39.799Z,2.03
2018-08-20T04:57:07.227Z,2.27
2018-08-20T04:59:34.675Z,2.40
2018-08-20T05:02:02.222Z,1.97
2018-08-20T05:04:29.607Z,2.50
2018-08-20T05:06:57.063Z,2.37
2018-08-20T05:09:24.537Z,2.00
2018-08-20T05:11:51.956Z,2.20
2018-08-20T05:14:19.344Z,2.50
2018-08-20T05:16:46.904Z,2.13
2018-08-20T05:19:14.299Z,2.30
2018-08-20T05:21:42.099Z,2.60
2018-08-20T05:24:09.495Z,2.47
2018-08-20T05:26:37.011Z,2.10
2018-08-20T05:29:04.511Z,2.27
2018-08-20T05:31:32.013Z,2.00
2018-08-20T05:33:59.393Z,2.30
2018-08-20T05:36:26.864Z,2.40
2018-08-20T05:38:54.318Z,1.67
2018-08-20T05:41:21.729Z,2.20
2018-08-20T05:43:49.115Z,2.00
2018-08-20T05:46:16.727Z,2.00
2018-08-20T05:48:45.133Z,1.83
2018-08-20T05:51:13.227Z,2.40
2018-08-20T05:53:40.718Z,2.70
2018-08-20T05:56:08.118Z,2.10
2018-08-20T05:58:35.502Z,2.43
2018-08-20T06:01:02.980Z,1.90
2018-08-20T06:03:30.391Z,2.37
2018-08-20T06:05:57.807Z,1.93
2018-08-20T06:08:25.232Z,2.00
2018-08-20T06:10:52.627Z,2.13
2018-08-20T06:13:20.032Z,2.53
2018-08-20T06:15:47.707Z,2.47
2018-08-20T06:18:15.591Z,2.10
2018-08-20T06:20:43.001Z,2.47
2018-08-20T06:23:10.734Z,2.13
2018-08-20T06:25:38.130Z,2.17
2018-08-20T06:28:05.554Z,2.60
2018-08-20T06:30:33.010Z,2.27
2018-08-20T06:33:00.591Z,2.87
2018-08-20T06:35:29.496Z,2.30
2018-08-20T06:37:57.019Z,2.27
2018-08-20T06:40:24.416Z,2.60
2018-08-20T06:42:53.099Z,2.30
2018-08-20T06:45:20.606Z,2.03
2018-08-20T06:47:49.363Z,2.50
2018-08-20T06:50:17.271Z,2.63
2018-08-20T06:52:45.721Z,2.43
2018-08-20T06:55:15.072Z,2.60
2018-08-20T06:57:43.473Z,2.33
2018-08-20T07:00:11.904Z,2.20
2018-08-20T07:02:39.505Z,1.93
2018-08-20T07:05:07.936Z,2.40
2018-08-20T07:07:36.879Z,2.30
2018-08-20T07:10:05.887Z,2.63
2018-08-20T07:12:34.047Z,2.30
2018-08-20T07:15:02.051Z,2.20
2018-08-20T07:17:29.617Z,2.13
2018-08-20T07:19:57.062Z,2.20
2018-08-20T07:22:24.805Z,2.03
2018-08-20T07:24:52.337Z,2.20
2018-08-20T07:27:20.968Z,2.10
2018-08-20T07:29:48.368Z,2.63
2018-08-20T07:32:17.003Z,2.10
2018-08-20T07:34:46.418Z,1.80
2018-08-20T07:37:16.319Z,2.00
2018-08-20T07:39:47.189Z,2.00
2018-08-20T07:42:14.673Z,2.30
2018-08-20T07:44:43.267Z,2.20
2018-08-20T07:47:11.107Z,2.07
2018-08-20T07:49:39.041Z,2.07
2018-08-20T07:52:07.168Z,1.70
2018-08-20T07:54:35.351Z,2.40
2018-08-20T07:57:03.027Z,2.17
2018-08-20T07:59:31.323Z,2.50
2018-08-20T08:01:58.793Z,2.03
2018-08-20T08:04:26.613Z,2.50
2018-08-20T08:06:54.055Z,2.17
2018-08-20T08:09:21.634Z,1.97
2018-08-20T08:11:49.907Z,2.00
2018-08-20T08:14:17.406Z,2.03
2018-08-20T08:16:44.852Z,2.07
2018-08-20T08:19:13.123Z,2.23
2018-08-20T08:21:40.523Z,2.13
2018-08-20T08:24:08.419Z,2.10
2018-08-20T08:26:35.928Z,1.60
2018-08-20T08:29:03.375Z,1.93
2018-08-20T08:31:30.831Z,1.93
2018-08-20T08:33:58.219Z,2.07
2018-08-20T08:36:25.723Z,2.33
2018-08-20T08:38:53.211Z,2.30
2018-08-20T08:41:22.718Z,1.90
2018-08-20T08:43:50.128Z,2.27
2018-08-20T08:46:17.651Z,2.20
2018-08-20T08:48:45.251Z,2.13
2018-08-20T08:51:12.768Z,2.00
2018-08-20T08:53:41.564Z,2.10
2018-08-20T08:56:09.572Z,2.30
2018-08-20T08:58:37.309Z,2.53
2018-08-20T09:01:04.807Z,2.30
2018-08-20T09:03:32.878Z,2.47
2018-08-20T09:06:01.731Z,2.10
2018-08-20T09:08:29.686Z,2.07
2018-08-20T09:10:57.127Z,2.10
2018-08-20T09:13:25.208Z,2.57
2018-08-20T09:15:52.632Z,2.40
2018-08-20T09:18:20.068Z,2.37
2018-08-20T09:20:47.483Z,2.20
2018-08-20T09:23:14.919Z,2.07
2018-08-20T09:25:42.419Z,1.70
2018-08-20T09:28:10.103Z,2.20
2018-08-20T09:30:37.567Z,2.23
2018-08-20T09:33:05.023Z,2.30
2018-08-20T09:35:32.502Z,2.40
2018-08-20T09:37:59.947Z,2.37
2018-08-20T09:40:28.075Z,2.10
2018-08-20T09:42:55.472Z,2.00
2018-08-20T09:45:22.929Z,2.00
2018-08-20T09:47:50.375Z,2.07
2018-08-20T09:50:17.796Z,2.00
2018-08-20T09:52:45.648Z,2.00
2018-08-20T09:55:13.043Z,2.00
2018-08-20T09:57:40.655Z,1.80
2018-08-20T10:00:09.740Z,1.87
2018-08-20T10:02:37.878Z,1.73
2018-08-20T10:05:05.543Z,1.90
2018-08-20T10:07:33.233Z,1.90
2018-08-20T10:10:00.847Z,1.73
2018-08-20T10:12:28.891Z,1.90
2018-08-20T10:14:56.711Z,2.10
2018-08-20T10:17:24.111Z,1.73
2018-08-20T10:19:51.592Z,2.03
2018-08-20T10:22:19.008Z,1.60
2018-08-20T10:24:46.581Z,1.80
2018-08-20T10:27:14.684Z,1.97
2018-08-20T10:29:42.167Z,1.80
2018-08-20T10:32:09.642Z,1.60
2018-08-20T10:34:37.060Z,1.60
2018-08-20T10:37:04.568Z,1.60
2018-08-20T10:39:31.975Z,2.00
2018-08-20T10:41:59.513Z,1.87
2018-08-20T10:44:26.919Z,1.60
2018-08-20T10:46:55.096Z,1.70
2018-08-20T10:49:22.471Z,1.90
2018-08-20T10:51:49.903Z,1.80
2018-08-20T10:54:17.316Z,2.00
2018-08-20T10:56:44.869Z,1.80
2018-08-20T10:59:12.264Z,2.20
2018-08-20T11:01:39.664Z,1.60
2018-08-20T11:04:07.056Z,2.00
2018-08-20T11:06:34.647Z,1.60
2018-08-20T11:09:02.199Z,1.67
2018-08-20T11:11:29.589Z,2.10
2018-08-20T11:13:57.127Z,1.90
2018-08-20T11:16:25.142Z,1.77
2018-08-20T11:18:52.681Z,2.00
2018-08-20T11:21:20.167Z,2.00
2018-08-20T11:23:47.571Z,1.70
2018-08-20T11:26:15.072Z,1.50
2018-08-20T11:28:43.675Z,1.70
2018-08-20T11:31:11.331Z,1.97
2018-08-20T11:33:38.719Z,1.90
2018-08-20T11:36:06.114Z,1.60
2018-08-20T11:38:33.495Z,1.63
2018-08-20T11:41:01.173Z,1.50
2018-08-20T11:43:28.599Z,1.30
2018-08-20T11:45:56.076Z,1.50
2018-08-20T11:48:23.471Z,1.70
2018-08-20T11:50:51.025Z,1.60
2018-08-20T11:53:18.424Z,1.20
2018-08-20T11:55:45.855Z,1.40
2018-08-20T11:58:13.670Z,1.10
2018-08-20T12:00:41.083Z,1.30
2018-08-20T12:03:09.795Z,1.30
2018-08-20T12:05:37.635Z,1.47
2018-08-20T12:08:05.331Z,1.27
2018-08-20T12:10:32.796Z,1.30
2018-08-20T12:13:00.258Z,1.20
2018-08-20T12:15:27.656Z,1.30
2018-08-20T12:17:55.167Z,1.30
2018-08-20T12:20:22.635Z,1.50
2018-08-20T12:22:50.043Z,1.33
2018-08-20T12:25:17.533Z,1.30
2018-08-20T12:27:45.620Z,1.43
2018-08-20T12:30:16.774Z,1.30
2018-08-20T12:32:44.292Z,1.37
2018-08-20T12:35:12.475Z,1.30
2018-08-20T12:37:41.159Z,1.30
2018-08-20T12:40:09.683Z,1.30
2018-08-20T12:42:37.128Z,1.40
2018-08-20T12:45:04.936Z,1.40
2018-08-20T12:47:32.399Z,1.40
2018-08-20T12:49:59.778Z,1.50
2018-08-20T12:52:27.238Z,1.80
2018-08-20T12:54:54.613Z,1.97
2018-08-20T12:57:21.975Z,1.80
2018-08-20T12:59:52.157Z,1.60
2018-08-20T13:02:19.570Z,1.67
2018-08-20T13:04:46.943Z,1.90
2018-08-20T13:07:14.487Z,1.80
2018-08-20T13:09:42.819Z,1.87
2018-08-20T13:12:10.280Z,2.00
2018-08-20T13:14:37.786Z,2.00
2018-08-20T13:17:05.439Z,1.97
2018-08-20T13:19:32.836Z,2.20
2018-08-20T13:22:00.279Z,2.10
2018-08-20T13:24:27.867Z,1.90
2018-08-20T13:26:55.250Z,2.20
2018-08-20T13:29:22.693Z,1.90
2018-08-20T13:31:50.236Z,2.10
2018-08-20T13:34:17.610Z,1.87
2018-08-20T13:36:45.047Z,2.00
2018-08-20T13:39:12.698Z,1.90
2018-08-20T13:41:40.232Z,1.93
2018-08-20T13:44:07.787Z,1.80
2018-08-20T13:46:35.791Z,1.80
2018-08-20T13:49:03.219Z,2.20
2018-08-20T13:51:30.839Z,2.13
2018-08-20T13:53:58.206Z,1.97
2018-08-20T13:56:26.032Z,1.97
2018-08-20T13:58:53.473Z,1.93
2018-08-20T14:01:20.903Z,2.20
2018-08-20T14:03:49.037Z,2.13
2018-08-20T14:06:16.545Z,2.00
2018-08-20T14:08:44.635Z,1.93
2018-08-20T14:11:12.008Z,2.53
2018-08-20T14:13:39.404Z,1.90
2018-08-20T14:16:06.931Z,2.23
2018-08-20T14:18:35.375Z,2.20
2018-08-20T14:21:11.123Z,2.00
2018-08-20T14:23:38.775Z,2.10
2018-08-20T14:26:06.275Z,2.13
2018-08-20T14:28:33.759Z,2.00
2018-08-20T14:31:01.767Z,2.23
2018-08-20T14:33:30.362Z,2.13
2018-08-20T14:35:58.028Z,2.13
2018-08-20T14:38:25.424Z,2.20
2018-08-20T14:40:52.819Z,1.87
2018-08-20T14:43:20.264Z,1.80
2018-08-20T14:45:53.119Z,1.90
2018-08-20T14:48:21.112Z,2.10
2018-08-20T14:50:49.448Z,2.00
2018-08-20T14:53:16.902Z,1.93
2018-08-20T14:55:44.383Z,1.87
2018-08-20T14:58:11.849Z,1.90
2018-08-20T15:00:39.492Z,2.17
2018-08-20T15:03:07.063Z,2.17
2018-08-20T15:05:34.463Z,2.40
2018-08-20T15:08:01.879Z,2.27
2018-08-20T15:10:29.467Z,2.47
2018-08-20T15:12:56.877Z,2.70
2018-08-20T15:15:24.363Z,2.10
2018-08-20T15:17:51.789Z,2.13
2018-08-20T15:20:19.248Z,2.37
2018-08-20T15:22:46.653Z,2.57
2018-08-20T15:25:14.111Z,2.27
2018-08-20T15:27:41.486Z,2.23
2018-08-20T15:30:09.131Z,2.37
2018-08-20T15:32:36.605Z,2.50
2018-08-20T15:35:04.232Z,2.60
2018-08-20T15:37:31.743Z,3.07
2018-08-20T15:39:59.173Z,2.57
2018-08-20T15:42:26.678Z,2.67
2018-08-20T15:44:54.132Z,2.40
2018-08-20T15:47:22.168Z,2.40
2018-08-20T15:49:50.059Z,2.67
2018-08-20T15:52:18.815Z,2.43
2018-08-20T15:54:46.239Z,2.23
2018-08-20T15:57:13.610Z,2.30
2018-08-20T15:59:41.025Z,2.37
2018-08-20T16:02:08.657Z,2.30
2018-08-20T16:04:36.088Z,2.70
2018-08-20T16:07:04.250Z,2.77
2018-08-20T16:09:32.425Z,2.63
2018-08-20T16:12:00.406Z,2.60
2018-08-20T16:14:30.636Z,2.80
2018-08-20T16:16:58.150Z,2.50
2018-08-20T16:19:27.604Z,2.53
2018-08-20T16:21:56.687Z,2.60
2018-08-20T16:24:24.999Z,2.80
2018-08-20T16:26:53.321Z,2.83
2018-08-20T16:29:21.123Z,2.40
2018-08-20T16:31:48.687Z,2.60
2018-08-20T16:34:16.131Z,2.20
2018-08-20T16:36:43.612Z,2.30
2018-08-20T16:39:12.407Z,2.30
2018-08-20T16:41:40.683Z,2.10
2018-08-20T16:44:09.695Z,2.17
2018-08-20T16:46:37.734Z,1.90
2018-08-20T16:49:05.443Z,2.10
2018-08-20T16:51:32.988Z,1.93
2018-08-20T16:54:00.506Z,1.87
2018-08-20T16:56:27.900Z,1.77
2018-08-20T16:58:55.363Z,1.90
2018-08-20T17:01:22.967Z,2.03
2018-08-20T17:03:50.430Z,1.90
2018-08-20T17:06:17.888Z,1.67
2018-08-20T17:08:45.823Z,1.93
2018-08-20T17:11:14.455Z,1.87
2018-08-20T17:13:42.251Z,1.43
2018-08-20T17:16:10.894Z,1.60
2018-08-20T17:18:38.372Z,1.50
2018-08-20T17:21:05.788Z,1.60
2018-08-20T17:23:34.527Z,1.50
2018-08-20T17:26:01.979Z,1.43
2018-08-20T17:28:29.409Z,1.40
2018-08-20T17:31:00.890Z,1.60
2018-08-20T17:33:29.496Z,1.43
2018-08-20T17:35:57.609Z,1.43
2018-08-20T17:38:25.175Z,1.43
2018-08-20T17:40:52.856Z,1.40
2018-08-20T17:43:20.354Z,1.70
2018-08-20T17:45:47.854Z,1.30
2018-08-20T17:48:20.937Z,1.70
2018-08-20T17:50:48.512Z,1.53
2018-08-20T17:53:15.957Z,1.50
2018-08-20T17:55:43.559Z,1.83
2018-08-20T17:58:11.295Z,1.60
2018-08-20T18:00:46.897Z,1.60
2018-08-20T18:03:20.248Z,1.70
2018-08-20T18:05:52.485Z,1.70
2018-08-20T18:08:19.931Z,1.50
2018-08-20T18:10:47.487Z,2.27
2018-08-20T18:13:49.681Z,1.80
2018-08-20T18:16:19.518Z,1.60
2018-08-20T18:18:48.515Z,1.47
2018-08-20T18:21:16.023Z,1.80
2018-08-20T18:23:43.418Z,1.67
2018-08-20T18:26:10.879Z,1.63
2018-08-20T18:28:44.259Z,1.60
2018-08-20T18:31:20.124Z,1.50
2018-08-20T18:33:48.040Z,1.60
2018-08-20T18:36:20.971Z,2.00
2018-08-20T18:39:00.289Z,1.80
2018-08-20T18:41:37.484Z,1.80
2018-08-20T18:44:04.928Z,1.83
2018-08-20T18:46:32.303Z,1.50
2018-08-20T18:48:59.704Z,1.77
2018-08-20T18:51:27.137Z,1.80
2018-08-20T18:53:55.247Z,1.43
2018-08-20T18:56:22.643Z,1.63
2018-08-20T18:58:50.237Z,1.60
2018-08-20T19:01:17.667Z,1.67
2018-08-20T19:03:49.136Z,1.67
2018-08-20T19:06:18.514Z,1.70
2018-08-20T19:08:45.979Z,1.60
2018-08-20T19:11:14.051Z,1.87
2018-08-20T19:13:42.514Z,1.50
2018-08-20T19:16:25.919Z,1.43
2018-08-20T19:18:53.376Z,1.90
2018-08-20T19:21:25.104Z,1.73
2018-08-20T19:23:52.531Z,1.60
2018-08-20T19:26:19.971Z,1.70
2018-08-20T19:28:47.391Z,1.63
2018-08-20T19:31:14.912Z,1.70
2018-08-20T19:33:44.093Z,1.40
2018-08-20T19:36:13.216Z,1.53
2018-08-20T19:38:40.627Z,1.80
2018-08-20T19:41:12.843Z,1.67
2018-08-20T19:43:50.908Z,1.53
2018-08-20T19:46:18.836Z,1.60
2018-08-20T19:48:46.563Z,1.67
2018-08-20T19:51:14.945Z,1.60
2018-08-20T19:53:42.445Z,1.73
2018-08-20T19:56:11.089Z,1.50
2018-08-20T19:58:38.566Z,1.50
2018-08-20T20:01:15.287Z,1.60
2018-08-20T20:03:45.154Z,1.60
2018-08-20T20:06:13.962Z,1.80
2018-08-20T20:08:41.601Z,1.43
2018-08-20T20:11:13.387Z,1.60
2018-08-20T20:13:40.868Z,1.50
2018-08-20T20:16:08.284Z,1.80
2018-08-20T20:18:35.781Z,1.60
2018-08-20T20:21:03.187Z,1.90
2018-08-20T20:23:30.645Z,1.73
2018-08-20T20:25:58.079Z,1.60
2018-08-20T20:28:25.485Z,1.40
2018-08-20T20:30:52.922Z,1.30
2018-08-20T20:33:20.396Z,1.70
2018-08-20T20:35:47.798Z,1.63
2018-08-20T20:38:16.125Z,1.60
2018-08-20T20:40:43.543Z,1.50
2018-08-20T20:43:10.964Z,1.73
2018-08-20T20:45:38.461Z,1.80
2018-08-20T20:48:05.875Z,1.73
2018-08-20T20:50:33.255Z,1.73
2018-08-20T20:53:00.716Z,1.63
2018-08-20T20:55:28.119Z,1.73
2018-08-20T20:57:55.615Z,1.67
2018-08-20T21:00:23.090Z,2.00
2018-08-20T21:02:52.257Z,1.80
2018-08-20T21:05:19.927Z,1.70
2018-08-20T21:07:47.418Z,1.77
2018-08-20T21:10:14.863Z,1.77
2018-08-20T21:12:42.394Z,1.77
2018-08-20T21:15:09.847Z,1.93
2018-08-20T21:17:37.583Z,1.70
2018-08-20T21:20:06.003Z,1.70
2018-08-20T21:22:35.303Z,1.80
2018-08-20T21:25:03.471Z,2.20
2018-08-20T21:27:31.461Z,1.60
2018-08-20T21:30:00.779Z,1.63
2018-08-20T21:32:28.207Z,1.90
2018-08-20T21:34:55.630Z,1.83
2018-08-20T21:37:23.044Z,1.60
2018-08-20T21:39:50.589Z,1.53
2018-08-20T21:42:18.335Z,1.80
2018-08-20T21:44:45.780Z,1.60
2018-08-20T21:47:18.601Z,1.60
2018-08-20T21:49:46.020Z,1.47
2018-08-20T21:52:13.975Z,1.73
2018-08-20T21:54:41.357Z,1.60
2018-08-20T21:57:08.975Z,1.67
2018-08-20T21:59:36.343Z,1.77
2018-08-20T22:02:03.867Z,1.70
2018-08-20T22:04:31.320Z,1.60
2018-08-20T22:06:59.324Z,1.70
2018-08-20T22:09:26.779Z,1.70
2018-08-20T22:11:54.607Z,1.67
2018-08-20T22:14:22.024Z,1.40
2018-08-20T22:16:49.447Z,1.80
2018-08-20T22:19:17.011Z,1.60
2018-08-20T22:21:44.471Z,1.50
2018-08-20T22:24:11.848Z,1.40
2018-08-20T22:26:39.699Z,1.67
2018-08-20T22:29:07.117Z,1.50
2018-08-20T22:31:35.012Z,1.53
2018-08-20T22:34:05.715Z,1.80
2018-08-20T22:36:33.579Z,1.27
2018-08-20T22:39:02.299Z,1.40
2018-08-20T22:41:30.921Z,1.40
2018-08-20T22:43:58.715Z,1.50
2018-08-20T22:46:26.503Z,1.43
2018-08-20T22:48:55.819Z,1.50
2018-08-20T22:51:24.507Z,1.50
2018-08-20T22:53:52.479Z,1.50
2018-08-20T22:56:23.607Z,1.40
2018-08-20T22:58:51.251Z,1.40
2018-08-20T23:01:18.894Z,1.53
2018-08-20T23:03:46.351Z,1.30
2018-08-20T23:06:13.806Z,1.40
2018-08-20T23:08:41.231Z,1.30
2018-08-20T23:11:08.683Z,1.20
2018-08-20T23:13:36.481Z,1.20
2018-08-20T23:16:03.931Z,1.20
2018-08-20T23:18:31.443Z,1.20
2018-08-20T23:20:58.867Z,1.00
2018-08-20T23:23:35.755Z,1.13
2018-08-20T23:26:06.407Z,1.20
2018-08-20T23:28:34.587Z,1.10
2018-08-20T23:31:02.880Z,1.30
2018-08-20T23:33:31.269Z,1.20
2018-08-20T23:35:58.947Z,1.30
2018-08-20T23:38:27.359Z,1.07
2018-08-20T23:40:54.799Z,1.03
2018-08-20T23:43:22.224Z,1.20
2018-08-20T23:45:49.649Z,1.17
2018-08-20T23:48:17.172Z,1.30
2018-08-20T23:50:47.761Z,1.00
2018-08-20T23:53:15.154Z,1.10
2018-08-20T23:55:42.555Z,1.23
2018-08-20T23:58:10.623Z,1.30
